»·PEaware :: N6233G KCRQ-KEMT

N6233G :: KCRQ-KEMT

FLIGHT INFORMATION

Flight Status: Arrived
Operator: Privately registered:
United States
More flights under this callsign
Pilot: Mark B. (9455)
Aircraft: BEECH AIRCRAFT DEBONAIR BONANZA
(BE33)
More flights by this aircraft type
Origin: KCRQ McClellan-Palomar
United States
Destination: KEMT El Monte
United States
More flights between these airports :: More routes between these airports
Route: OCN V23 DANAH V363 POM
File this flight plan on PilotEdge
Remarks: +CW / TEC Route SANP23
Altitude:
(Current/Filed)
7,000ft
Speed:
(Current/Filed)
160kts
Departed: 18-Apr-20 03:30 PM
Arrived: 18-Apr-20 04:27 PM
Distance/Time
Traveled:
69nm/0:57
Distance/Time
To Go:
Arrived

Flight Plot

Page will automatically refresh every two minutes.


Map Options




Map Legend


Flown Route
Filed Route
Departure Airport
Arrival Airport
Navaid (VOR, NDB)
Fix

Horizontal Profiles

Position Reports

Time Latitude Longitude Heading Altitude Ground
Speed
18-Apr-20 15:05 33.130049 -117.276871 167 313ft 0kts
18-Apr-20 15:06 33.130049 -117.276871 167 313ft 0kts
18-Apr-20 15:07 33.130049 -117.276871 167 313ft 0kts
18-Apr-20 15:08 33.130049 -117.276871 167 313ft 0kts
18-Apr-20 15:09 33.130049 -117.276871 167 313ft 0kts
18-Apr-20 15:10 33.130049 -117.276871 167 313ft 0kts
18-Apr-20 15:11 33.127074 -117.279508 345 310ft 0kts
18-Apr-20 15:12 33.127074 -117.279508 345 310ft 0kts
18-Apr-20 15:13 33.127074 -117.279508 345 310ft 0kts
18-Apr-20 15:13 33.127074 -117.279508 345 310ft 0kts
18-Apr-20 15:15 33.127074 -117.279508 345 310ft 0kts
18-Apr-20 15:16 33.127074 -117.279508 345 310ft 0kts
18-Apr-20 15:17 33.127074 -117.279508 345 310ft 0kts
18-Apr-20 15:17 33.127074 -117.279508 345 310ft 0kts
18-Apr-20 15:18 33.127074 -117.279508 345 310ft 0kts
18-Apr-20 15:20 33.127937 -117.276909 78 311ft 19kts
18-Apr-20 15:20 33.128239 -117.272945 46 300ft 6kts
18-Apr-20 15:21 33.128301 -117.272922 345 300ft 0kts
18-Apr-20 15:22 33.128301 -117.272922 345 300ft 0kts
18-Apr-20 15:23 33.128301 -117.272922 345 300ft 0kts
18-Apr-20 15:24 33.128301 -117.272922 345 300ft 0kts
18-Apr-20 15:25 33.128301 -117.272922 345 300ft 0kts
18-Apr-20 15:26 33.128301 -117.272922 345 300ft 0kts
18-Apr-20 15:27 33.128301 -117.272922 345 300ft 0kts
18-Apr-20 15:28 33.128941 -117.272880 349 302ft 6kts
18-Apr-20 15:29 33.128035 -117.284350 265 504ft 76kts
18-Apr-20 15:30 33.127573 -117.311779 268 1185ft 109kts
18-Apr-20 15:31 33.125400 -117.344245 265 2292ft 107kts
18-Apr-20 15:32 33.123049 -117.379424 271 3009ft 136kts
18-Apr-20 15:33 33.120747 -117.432853 264 2999ft 176kts
18-Apr-20 15:34 33.115727 -117.491833 261 3135ft 176kts
18-Apr-20 15:35 33.136544 -117.535397 351 3619ft 164kts
18-Apr-20 15:36 33.173513 -117.550703 332 4591ft 140kts
18-Apr-20 15:37 33.202658 -117.565071 336 5329ft 135kts
18-Apr-20 15:38 33.224761 -117.575430 343 6006ft 126kts
18-Apr-20 15:39 33.254363 -117.589235 335 6001ft 161kts
18-Apr-20 15:40 33.289003 -117.606789 335 6007ft 173kts
18-Apr-20 15:41 33.323992 -117.623737 338 6006ft 175kts
18-Apr-20 15:42 33.359402 -117.640449 338 5889ft 176kts
18-Apr-20 15:43 33.394164 -117.656948 338 5887ft 174kts
18-Apr-20 15:44 33.426045 -117.671886 338 5887ft 173kts
18-Apr-20 15:45 33.455710 -117.685812 338 5887ft 173kts
18-Apr-20 15:46 33.485500 -117.698948 351 5881ft 174kts
18-Apr-20 15:47 33.515706 -117.703055 352 5888ft 173kts
18-Apr-20 15:48 33.543284 -117.707795 352 5887ft 173kts
18-Apr-20 15:49 33.568210 -117.712080 352 5887ft 173kts
18-Apr-20 15:50 33.587398 -117.715414 351 5887ft 173kts
18-Apr-20 15:51 33.608936 -117.718991 353 5887ft 173kts
18-Apr-20 15:52 33.635931 -117.723438 352 5888ft 173kts
18-Apr-20 15:53 33.676111 -117.727604 349 6028ft 157kts
18-Apr-20 15:54 33.700968 -117.738770 333 5353ft 194kts
18-Apr-20 15:55 33.726765 -117.753497 336 4947ft 190kts
18-Apr-20 15:56 33.752116 -117.765989 340 4890ft 181kts
18-Apr-20 15:57 33.788964 -117.780577 1 4869ft 175kts
18-Apr-20 15:58 33.831672 -117.781464 358 4873ft 173kts
18-Apr-20 15:59 33.863216 -117.782175 359 4873ft 172kts
18-Apr-20 16:00 33.899043 -117.782766 359 4873ft 172kts
18-Apr-20 16:01 33.939256 -117.783548 359 4873ft 172kts
18-Apr-20 16:02 33.975976 -117.784149 359 4870ft 161kts
18-Apr-20 16:03 34.005272 -117.784989 358 4860ft 128kts
18-Apr-20 16:04 34.028045 -117.785660 359 4869ft 109kts
18-Apr-20 16:05 34.049020 -117.786079 359 4873ft 105kts
18-Apr-20 16:06 34.070772 -117.786534 359 4873ft 105kts
18-Apr-20 16:07 34.082906 -117.801767 254 4872ft 104kts
18-Apr-20 16:08 34.063966 -117.803308 124 4637ft 118kts
18-Apr-20 16:09 34.048982 -117.779241 127 4455ft 122kts
18-Apr-20 16:10 34.048113 -117.754335 26 4136ft 128kts
18-Apr-20 16:11 34.067918 -117.770084 308 3864ft 127kts
18-Apr-20 16:12 34.079690 -117.792705 290 3804ft 119kts
18-Apr-20 16:13 34.082514 -117.815352 274 3625ft 91kts
18-Apr-20 16:14 34.082395 -117.835330 267 3595ft 82kts
18-Apr-20 16:15 34.082698 -117.858147 274 3439ft 89kts
18-Apr-20 16:16 34.084044 -117.883664 266 3014ft 94kts
18-Apr-20 16:17 34.083766 -117.901783 271 2834ft 92kts
18-Apr-20 16:18 34.083846 -117.919488 269 2640ft 100kts
18-Apr-20 16:19 34.084285 -117.943254 275 1700ft 124kts
18-Apr-20 16:20 34.085168 -117.975444 268 1238ft 97kts
18-Apr-20 16:21 34.087429 -118.001206 325 1188ft 68kts
18-Apr-20 16:22 34.106914 -117.996683 2 1171ft 80kts
18-Apr-20 16:23 34.115858 -118.015162 243 911ft 77kts
18-Apr-20 16:24 34.102564 -118.025147 206 614ft 82kts
18-Apr-20 16:25 34.087646 -118.033878 205 288ft 59kts
18-Apr-20 16:26 34.084160 -118.035140 205 285ft 0kts

Navigation Log

Ident Type
Flight plan parsing failed, navigation log unavailable